sensor_id;sensor_type;location;lat;lon;timestamp;P1;durP1;ratioP1;P2;durP2;ratioP2
48993;SDS011;34804;49.214;12.276;2023-02-28T00:00:11;7.13;;;4.53;;
48993;SDS011;34804;49.214;12.276;2023-02-28T00:02:40;11.47;;;4.90;;
48993;SDS011;34804;49.214;12.276;2023-02-28T00:05:08;9.87;;;4.73;;
48993;SDS011;34804;49.214;12.276;2023-02-28T00:07:36;8.73;;;5.10;;
48993;SDS011;34804;49.214;12.276;2023-02-28T00:10:04;8.20;;;4.23;;
48993;SDS011;34804;49.214;12.276;2023-02-28T00:12:35;8.90;;;4.37;;
48993;SDS011;34804;49.214;12.276;2023-02-28T00:15:07;9.63;;;4.10;;
48993;SDS011;34804;49.214;12.276;2023-02-28T00:17:35;10.75;;;4.57;;
48993;SDS011;34804;49.214;12.276;2023-02-28T00:20:03;8.47;;;4.20;;
48993;SDS011;34804;49.214;12.276;2023-02-28T00:22:34;7.70;;;4.20;;
48993;SDS011;34804;49.214;12.276;2023-02-28T00:25:01;8.87;;;4.77;;
48993;SDS011;34804;49.214;12.276;2023-02-28T00:27:30;8.70;;;4.20;;
48993;SDS011;34804;49.214;12.276;2023-02-28T00:29:57;7.93;;;4.47;;
48993;SDS011;34804;49.214;12.276;2023-02-28T00:32:23;9.73;;;4.60;;
48993;SDS011;34804;49.214;12.276;2023-02-28T00:34:50;10.37;;;4.07;;
48993;SDS011;34804;49.214;12.276;2023-02-28T00:37:17;10.77;;;4.30;;
48993;SDS011;34804;49.214;12.276;2023-02-28T00:39:44;9.77;;;4.67;;
48993;SDS011;34804;49.214;12.276;2023-02-28T00:42:11;8.15;;;4.40;;
48993;SDS011;34804;49.214;12.276;2023-02-28T00:44:37;10.37;;;4.60;;
48993;SDS011;34804;49.214;12.276;2023-02-28T00:47:04;9.13;;;4.87;;
48993;SDS011;34804;49.214;12.276;2023-02-28T00:49:31;9.35;;;4.30;;
48993;SDS011;34804;49.214;12.276;2023-02-28T00:51:58;9.33;;;4.40;;
48993;SDS011;34804;49.214;12.276;2023-02-28T00:54:25;10.68;;;4.60;;
48993;SDS011;34804;49.214;12.276;2023-02-28T00:56:52;8.18;;;4.85;;
48993;SDS011;34804;49.214;12.276;2023-02-28T00:59:18;10.93;;;4.40;;
48993;SDS011;34804;49.214;12.276;2023-02-28T01:01:45;9.37;;;4.97;;
48993;SDS011;34804;49.214;12.276;2023-02-28T01:04:13;11.13;;;4.75;;
48993;SDS011;34804;49.214;12.276;2023-02-28T01:06:40;9.43;;;4.40;;
48993;SDS011;34804;49.214;12.276;2023-02-28T01:09:07;8.77;;;4.70;;
48993;SDS011;34804;49.214;12.276;2023-02-28T01:11:34;10.40;;;5.03;;
48993;SDS011;34804;49.214;12.276;2023-02-28T01:14:01;7.93;;;3.97;;
48993;SDS011;34804;49.214;12.276;2023-02-28T01:16:30;8.90;;;4.50;;
48993;SDS011;34804;49.214;12.276;2023-02-28T01:18:57;9.53;;;4.47;;
48993;SDS011;34804;49.214;12.276;2023-02-28T01:21:24;8.90;;;4.47;;
48993;SDS011;34804;49.214;12.276;2023-02-28T01:23:51;10.27;;;4.60;;
48993;SDS011;34804;49.214;12.276;2023-02-28T01:26:21;10.70;;;4.57;;
48993;SDS011;34804;49.214;12.276;2023-02-28T01:28:49;9.00;;;4.27;;
48993;SDS011;34804;49.214;12.276;2023-02-28T01:31:17;10.57;;;5.10;;
48993;SDS011;34804;49.214;12.276;2023-02-28T01:33:45;9.60;;;4.63;;
48993;SDS011;34804;49.214;12.276;2023-02-28T01:38:44;9.33;;;4.70;;
48993;SDS011;34804;49.214;12.276;2023-02-28T01:41:15;8.27;;;4.70;;
48993;SDS011;34804;49.214;12.276;2023-02-28T01:46:13;10.93;;;5.17;;
48993;SDS011;34804;49.214;12.276;2023-02-28T01:49:03;10.80;;;4.87;;
48993;SDS011;34804;49.214;12.276;2023-02-28T01:51:37;8.43;;;4.30;;
48993;SDS011;34804;49.214;12.276;2023-02-28T01:54:13;12.10;;;4.63;;
48993;SDS011;34804;49.214;12.276;2023-02-28T01:56:44;10.83;;;5.47;;
48993;SDS011;34804;49.214;12.276;2023-02-28T01:59:19;11.73;;;5.53;;
48993;SDS011;34804;49.214;12.276;2023-02-28T02:01:53;10.10;;;5.40;;
48993;SDS011;34804;49.214;12.276;2023-02-28T02:04:21;9.90;;;5.13;;
48993;SDS011;34804;49.214;12.276;2023-02-28T02:06:51;11.40;;;6.33;;
48993;SDS011;34804;49.214;12.276;2023-02-28T02:09:18;11.37;;;5.67;;
48993;SDS011;34804;49.214;12.276;2023-02-28T02:11:45;9.90;;;5.47;;
48993;SDS011;34804;49.214;12.276;2023-02-28T02:17:12;11.70;;;5.80;;
48993;SDS011;34804;49.214;12.276;2023-02-28T02:19:50;10.83;;;5.70;;
48993;SDS011;34804;49.214;12.276;2023-02-28T02:28:17;10.70;;;5.50;;
48993;SDS011;34804;49.214;12.276;2023-02-28T02:37:12;12.03;;;6.23;;
48993;SDS011;34804;49.214;12.276;2023-02-28T02:39:53;11.10;;;5.20;;
48993;SDS011;34804;49.214;12.276;2023-02-28T02:48:03;12.33;;;5.80;;
48993;SDS011;34804;49.214;12.276;2023-02-28T02:50:44;10.80;;;5.85;;
48993;SDS011;34804;49.214;12.276;2023-02-28T02:53:16;13.80;;;5.70;;
48993;SDS011;34804;49.214;12.276;2023-02-28T02:55:47;9.37;;;5.10;;
48993;SDS011;34804;49.214;12.276;2023-02-28T02:58:22;13.97;;;6.33;;
48993;SDS011;34804;49.214;12.276;2023-02-28T03:00:54;12.52;;;5.93;;
48993;SDS011;34804;49.214;12.276;2023-02-28T03:03:24;11.17;;;5.70;;
48993;SDS011;34804;49.214;12.276;2023-02-28T03:05:56;11.83;;;5.40;;
48993;SDS011;34804;49.214;12.276;2023-02-28T03:08:24;11.30;;;6.30;;
48993;SDS011;34804;49.214;12.276;2023-02-28T03:10:55;11.57;;;5.57;;
48993;SDS011;34804;49.214;12.276;2023-02-28T03:27:30;13.70;;;5.83;;
48993;SDS011;34804;49.214;12.276;2023-02-28T03:33:09;12.73;;;5.47;;
48993;SDS011;34804;49.214;12.276;2023-02-28T03:35:55;11.90;;;6.43;;
48993;SDS011;34804;49.214;12.276;2023-02-28T03:38:31;11.80;;;6.17;;
48993;SDS011;34804;49.214;12.276;2023-02-28T03:41:22;10.97;;;6.07;;
48993;SDS011;34804;49.214;12.276;2023-02-28T03:44:00;13.30;;;6.30;;
48993;SDS011;34804;49.214;12.276;2023-02-28T03:46:34;11.50;;;6.07;;
48993;SDS011;34804;49.214;12.276;2023-02-28T03:49:17;13.93;;;6.20;;
48993;SDS011;34804;49.214;12.276;2023-02-28T03:51:49;14.63;;;6.23;;
48993;SDS011;34804;49.214;12.276;2023-02-28T03:54:22;14.27;;;6.10;;
48993;SDS011;34804;49.214;12.276;2023-02-28T03:56:59;12.43;;;6.20;;
48993;SDS011;34804;49.214;12.276;2023-02-28T03:59:39;11.87;;;5.87;;
48993;SDS011;34804;49.214;12.276;2023-02-28T04:02:11;10.37;;;5.53;;
48993;SDS011;34804;49.214;12.276;2023-02-28T04:04:38;14.60;;;6.33;;
48993;SDS011;34804;49.214;12.276;2023-02-28T04:07:06;14.60;;;6.27;;
48993;SDS011;34804;49.214;12.276;2023-02-28T04:09:34;20.50;;;7.93;;
48993;SDS011;34804;49.214;12.276;2023-02-28T04:12:01;14.43;;;6.53;;
48993;SDS011;34804;49.214;12.276;2023-02-28T04:14:28;13.83;;;6.53;;
48993;SDS011;34804;49.214;12.276;2023-02-28T04:16:55;14.93;;;6.47;;
48993;SDS011;34804;49.214;12.276;2023-02-28T04:19:22;16.10;;;6.80;;
48993;SDS011;34804;49.214;12.276;2023-02-28T04:21:49;13.50;;;6.50;;
48993;SDS011;34804;49.214;12.276;2023-02-28T04:24:21;13.00;;;6.27;;
48993;SDS011;34804;49.214;12.276;2023-02-28T04:26:51;11.73;;;6.00;;
48993;SDS011;34804;49.214;12.276;2023-02-28T04:29:21;12.10;;;6.20;;
48993;SDS011;34804;49.214;12.276;2023-02-28T04:31:50;12.47;;;6.60;;
48993;SDS011;34804;49.214;12.276;2023-02-28T04:34:20;15.50;;;6.67;;
48993;SDS011;34804;49.214;12.276;2023-02-28T04:36:47;12.30;;;6.83;;
48993;SDS011;34804;49.214;12.276;2023-02-28T04:39:37;17.00;;;7.17;;
48993;SDS011;34804;49.214;12.276;2023-02-28T04:42:04;14.33;;;6.67;;
48993;SDS011;34804;49.214;12.276;2023-02-28T04:44:31;13.27;;;6.50;;
48993;SDS011;34804;49.214;12.276;2023-02-28T04:46:58;20.70;;;8.63;;
48993;SDS011;34804;49.214;12.276;2023-02-28T04:49:25;17.13;;;8.07;;
48993;SDS011;34804;49.214;12.276;2023-02-28T04:51:52;14.47;;;7.13;;
48993;SDS011;34804;49.214;12.276;2023-02-28T04:54:19;13.40;;;7.50;;
48993;SDS011;34804;49.214;12.276;2023-02-28T04:56:46;15.23;;;7.20;;
48993;SDS011;34804;49.214;12.276;2023-02-28T04:59:15;14.37;;;7.83;;
48993;SDS011;34804;49.214;12.276;2023-02-28T05:01:45;14.70;;;7.60;;
48993;SDS011;34804;49.214;12.276;2023-02-28T05:04:14;17.97;;;7.50;;
48993;SDS011;34804;49.214;12.276;2023-02-28T05:06:41;16.13;;;7.40;;
48993;SDS011;34804;49.214;12.276;2023-02-28T05:09:08;14.37;;;8.17;;
48993;SDS011;34804;49.214;12.276;2023-02-28T05:11:37;16.27;;;7.47;;
48993;SDS011;34804;49.214;12.276;2023-02-28T05:14:06;13.57;;;7.37;;
48993;SDS011;34804;49.214;12.276;2023-02-28T05:16:38;13.45;;;7.32;;
48993;SDS011;34804;49.214;12.276;2023-02-28T05:19:05;17.13;;;8.60;;
48993;SDS011;34804;49.214;12.276;2023-02-28T05:21:33;18.93;;;8.60;;
48993;SDS011;34804;49.214;12.276;2023-02-28T05:24:02;17.60;;;8.10;;
48993;SDS011;34804;49.214;12.276;2023-02-28T05:26:34;17.20;;;8.07;;
48993;SDS011;34804;49.214;12.276;2023-02-28T05:29:02;17.57;;;8.63;;
48993;SDS011;34804;49.214;12.276;2023-02-28T05:31:29;15.57;;;7.80;;
48993;SDS011;34804;49.214;12.276;2023-02-28T05:33:56;16.20;;;8.47;;
48993;SDS011;34804;49.214;12.276;2023-02-28T05:36:23;17.90;;;9.03;;
48993;SDS011;34804;49.214;12.276;2023-02-28T05:38:50;15.73;;;7.90;;
48993;SDS011;34804;49.214;12.276;2023-02-28T05:41:17;13.40;;;6.70;;
48993;SDS011;34804;49.214;12.276;2023-02-28T05:43:45;14.93;;;8.03;;
48993;SDS011;34804;49.214;12.276;2023-02-28T05:46:13;14.77;;;7.00;;
48993;SDS011;34804;49.214;12.276;2023-02-28T05:48:41;11.50;;;6.10;;
48993;SDS011;34804;49.214;12.276;2023-02-28T05:51:08;13.97;;;6.53;;
48993;SDS011;34804;49.214;12.276;2023-02-28T05:53:35;12.77;;;6.73;;
48993;SDS011;34804;49.214;12.276;2023-02-28T05:56:02;10.73;;;6.00;;
48993;SDS011;34804;49.214;12.276;2023-02-28T05:58:29;13.07;;;6.53;;
48993;SDS011;34804;49.214;12.276;2023-02-28T06:00:58;10.30;;;5.73;;
48993;SDS011;34804;49.214;12.276;2023-02-28T06:03:26;11.07;;;5.37;;
48993;SDS011;34804;49.214;12.276;2023-02-28T06:05:53;14.97;;;5.83;;
48993;SDS011;34804;49.214;12.276;2023-02-28T06:08:20;14.30;;;5.83;;
48993;SDS011;34804;49.214;12.276;2023-02-28T06:10:47;12.80;;;5.67;;
48993;SDS011;34804;49.214;12.276;2023-02-28T06:13:14;10.90;;;5.67;;
48993;SDS011;34804;49.214;12.276;2023-02-28T06:15:41;12.30;;;5.50;;
48993;SDS011;34804;49.214;12.276;2023-02-28T06:18:08;10.07;;;5.30;;
48993;SDS011;34804;49.214;12.276;2023-02-28T06:20:35;12.98;;;5.57;;
48993;SDS011;34804;49.214;12.276;2023-02-28T06:23:02;11.07;;;5.27;;
48993;SDS011;34804;49.214;12.276;2023-02-28T06:25:29;12.87;;;6.23;;
48993;SDS011;34804;49.214;12.276;2023-02-28T06:27:56;12.23;;;5.80;;
48993;SDS011;34804;49.214;12.276;2023-02-28T06:30:23;13.77;;;6.07;;
48993;SDS011;34804;49.214;12.276;2023-02-28T06:32:53;10.57;;;5.67;;
48993;SDS011;34804;49.214;12.276;2023-02-28T06:35:20;13.47;;;5.90;;
48993;SDS011;34804;49.214;12.276;2023-02-28T06:37:48;13.35;;;6.22;;
48993;SDS011;34804;49.214;12.276;2023-02-28T06:40:14;11.77;;;5.70;;
48993;SDS011;34804;49.214;12.276;2023-02-28T06:42:42;12.25;;;5.70;;
48993;SDS011;34804;49.214;12.276;2023-02-28T06:45:09;12.52;;;5.95;;
48993;SDS011;34804;49.214;12.276;2023-02-28T06:47:38;14.15;;;6.05;;
48993;SDS011;34804;49.214;12.276;2023-02-28T06:50:07;13.15;;;6.30;;
48993;SDS011;34804;49.214;12.276;2023-02-28T06:52:35;12.30;;;5.10;;
48993;SDS011;34804;49.214;12.276;2023-02-28T06:55:04;12.60;;;6.18;;
48993;SDS011;34804;49.214;12.276;2023-02-28T06:57:32;13.80;;;6.47;;
48993;SDS011;34804;49.214;12.276;2023-02-28T07:00:02;12.80;;;6.60;;
48993;SDS011;34804;49.214;12.276;2023-02-28T07:02:35;12.95;;;6.45;;
48993;SDS011;34804;49.214;12.276;2023-02-28T07:05:02;12.07;;;6.45;;
48993;SDS011;34804;49.214;12.276;2023-02-28T07:07:32;11.82;;;6.15;;
48993;SDS011;34804;49.214;12.276;2023-02-28T07:09:59;12.15;;;6.30;;
48993;SDS011;34804;49.214;12.276;2023-02-28T07:12:26;12.50;;;6.72;;
48993;SDS011;34804;49.214;12.276;2023-02-28T07:14:53;12.25;;;6.43;;
48993;SDS011;34804;49.214;12.276;2023-02-28T07:17:22;13.07;;;6.72;;
48993;SDS011;34804;49.214;12.276;2023-02-28T07:19:48;12.30;;;6.45;;
48993;SDS011;34804;49.214;12.276;2023-02-28T07:22:15;12.52;;;6.63;;
48993;SDS011;34804;49.214;12.276;2023-02-28T07:24:42;15.40;;;6.55;;
48993;SDS011;34804;49.214;12.276;2023-02-28T07:27:08;15.73;;;6.07;;
48993;SDS011;34804;49.214;12.276;2023-02-28T07:29:35;12.15;;;6.55;;
48993;SDS011;34804;49.214;12.276;2023-02-28T07:32:03;11.70;;;6.15;;
48993;SDS011;34804;49.214;12.276;2023-02-28T07:34:30;11.85;;;6.10;;
48993;SDS011;34804;49.214;12.276;2023-02-28T07:36:57;11.60;;;5.43;;
48993;SDS011;34804;49.214;12.276;2023-02-28T07:39:24;19.88;;;6.57;;
48993;SDS011;34804;49.214;12.276;2023-02-28T07:41:50;14.57;;;6.35;;
48993;SDS011;34804;49.214;12.276;2023-02-28T07:44:17;12.70;;;6.43;;
48993;SDS011;34804;49.214;12.276;2023-02-28T07:46:44;13.25;;;5.60;;
48993;SDS011;34804;49.214;12.276;2023-02-28T07:49:11;13.10;;;6.35;;
48993;SDS011;34804;49.214;12.276;2023-02-28T07:51:37;11.30;;;6.03;;
48993;SDS011;34804;49.214;12.276;2023-02-28T07:54:04;11.52;;;5.75;;
48993;SDS011;34804;49.214;12.276;2023-02-28T07:56:31;13.20;;;5.93;;
48993;SDS011;34804;49.214;12.276;2023-02-28T07:58:58;12.02;;;5.50;;
48993;SDS011;34804;49.214;12.276;2023-02-28T08:01:25;13.57;;;6.20;;
48993;SDS011;34804;49.214;12.276;2023-02-28T08:03:52;10.20;;;5.53;;
48993;SDS011;34804;49.214;12.276;2023-02-28T08:06:21;13.07;;;6.32;;
48993;SDS011;34804;49.214;12.276;2023-02-28T08:08:50;14.98;;;6.30;;
48993;SDS011;34804;49.214;12.276;2023-02-28T08:11:17;12.60;;;6.75;;
48993;SDS011;34804;49.214;12.276;2023-02-28T08:13:44;14.77;;;6.45;;
48993;SDS011;34804;49.214;12.276;2023-02-28T08:16:13;11.52;;;6.20;;
48993;SDS011;34804;49.214;12.276;2023-02-28T08:18:43;12.25;;;6.68;;
48993;SDS011;34804;49.214;12.276;2023-02-28T08:21:10;13.40;;;6.25;;
48993;SDS011;34804;49.214;12.276;2023-02-28T08:23:37;11.50;;;5.88;;
48993;SDS011;34804;49.214;12.276;2023-02-28T08:26:04;23.13;;;6.95;;
48993;SDS011;34804;49.214;12.276;2023-02-28T08:28:31;13.88;;;6.20;;
48993;SDS011;34804;49.214;12.276;2023-02-28T08:30:58;11.77;;;6.55;;
48993;SDS011;34804;49.214;12.276;2023-02-28T08:33:25;11.32;;;5.70;;
48993;SDS011;34804;49.214;12.276;2023-02-28T08:35:54;12.10;;;6.45;;
48993;SDS011;34804;49.214;12.276;2023-02-28T08:38:22;11.55;;;5.90;;
48993;SDS011;34804;49.214;12.276;2023-02-28T08:40:49;16.52;;;6.65;;
48993;SDS011;34804;49.214;12.276;2023-02-28T08:43:16;13.27;;;5.97;;
48993;SDS011;34804;49.214;12.276;2023-02-28T08:45:43;10.27;;;5.97;;
48993;SDS011;34804;49.214;12.276;2023-02-28T08:48:09;13.75;;;6.20;;
48993;SDS011;34804;49.214;12.276;2023-02-28T08:50:36;11.88;;;6.00;;
48993;SDS011;34804;49.214;12.276;2023-02-28T08:53:03;11.57;;;6.25;;
48993;SDS011;34804;49.214;12.276;2023-02-28T08:55:30;11.43;;;6.20;;
48993;SDS011;34804;49.214;12.276;2023-02-28T08:57:57;11.48;;;6.88;;
48993;SDS011;34804;49.214;12.276;2023-02-28T09:00:24;14.68;;;6.72;;
48993;SDS011;34804;49.214;12.276;2023-02-28T09:02:51;13.55;;;6.40;;
48993;SDS011;34804;49.214;12.276;2023-02-28T09:05:18;12.63;;;5.93;;
48993;SDS011;34804;49.214;12.276;2023-02-28T09:07:45;13.07;;;6.28;;
48993;SDS011;34804;49.214;12.276;2023-02-28T09:10:11;13.52;;;6.25;;
48993;SDS011;34804;49.214;12.276;2023-02-28T09:12:38;13.30;;;6.60;;
48993;SDS011;34804;49.214;12.276;2023-02-28T09:15:05;13.15;;;6.53;;
48993;SDS011;34804;49.214;12.276;2023-02-28T09:17:32;10.88;;;5.45;;
48993;SDS011;34804;49.214;12.276;2023-02-28T09:19:59;14.23;;;6.28;;
48993;SDS011;34804;49.214;12.276;2023-02-28T09:22:26;11.18;;;5.97;;
48993;SDS011;34804;49.214;12.276;2023-02-28T09:24:53;14.82;;;6.68;;
48993;SDS011;34804;49.214;12.276;2023-02-28T09:27:20;14.15;;;6.53;;
48993;SDS011;34804;49.214;12.276;2023-02-28T09:29:47;13.25;;;7.07;;
48993;SDS011;34804;49.214;12.276;2023-02-28T09:32:13;13.38;;;6.45;;
48993;SDS011;34804;49.214;12.276;2023-02-28T09:34:40;11.85;;;6.50;;
48993;SDS011;34804;49.214;12.276;2023-02-28T09:37:07;11.63;;;6.32;;
48993;SDS011;34804;49.214;12.276;2023-02-28T09:39:34;12.25;;;6.10;;
48993;SDS011;34804;49.214;12.276;2023-02-28T09:42:01;13.65;;;6.95;;
48993;SDS011;34804;49.214;12.276;2023-02-28T09:44:39;11.27;;;6.82;;
48993;SDS011;34804;49.214;12.276;2023-02-28T09:47:13;12.63;;;6.45;;
48993;SDS011;34804;49.214;12.276;2023-02-28T09:49:42;12.27;;;6.90;;
48993;SDS011;34804;49.214;12.276;2023-02-28T09:52:16;13.00;;;6.88;;
48993;SDS011;34804;49.214;12.276;2023-02-28T09:54:49;12.65;;;6.78;;
48993;SDS011;34804;49.214;12.276;2023-02-28T10:05:26;12.02;;;6.38;;
48993;SDS011;34804;49.214;12.276;2023-02-28T10:10:29;12.57;;;6.05;;
48993;SDS011;34804;49.214;12.276;2023-02-28T10:13:06;11.52;;;6.40;;
48993;SDS011;34804;49.214;12.276;2023-02-28T10:15:42;13.75;;;7.03;;
48993;SDS011;34804;49.214;12.276;2023-02-28T10:18:13;14.57;;;7.13;;
48993;SDS011;34804;49.214;12.276;2023-02-28T10:20:42;13.40;;;6.78;;
48993;SDS011;34804;49.214;12.276;2023-02-28T10:23:44;12.98;;;6.97;;
48993;SDS011;34804;49.214;12.276;2023-02-28T10:26:12;13.45;;;6.18;;
48993;SDS011;34804;49.214;12.276;2023-02-28T10:28:44;12.25;;;6.68;;
48993;SDS011;34804;49.214;12.276;2023-02-28T10:31:17;14.05;;;6.53;;
48993;SDS011;34804;49.214;12.276;2023-02-28T10:33:45;16.42;;;7.22;;
48993;SDS011;34804;49.214;12.276;2023-02-28T10:36:15;15.52;;;6.70;;
48993;SDS011;34804;49.214;12.276;2023-02-28T10:38:45;12.95;;;7.13;;
48993;SDS011;34804;49.214;12.276;2023-02-28T10:41:14;13.15;;;6.05;;
48993;SDS011;34804;49.214;12.276;2023-02-28T10:43:44;12.02;;;6.70;;
48993;SDS011;34804;49.214;12.276;2023-02-28T10:46:20;13.80;;;6.40;;
48993;SDS011;34804;49.214;12.276;2023-02-28T10:49:00;13.00;;;6.30;;
48993;SDS011;34804;49.214;12.276;2023-02-28T10:51:34;11.88;;;6.45;;
48993;SDS011;34804;49.214;12.276;2023-02-28T10:54:06;11.27;;;5.88;;
48993;SDS011;34804;49.214;12.276;2023-02-28T10:56:42;13.25;;;6.85;;
48993;SDS011;34804;49.214;12.276;2023-02-28T10:59:28;14.57;;;6.80;;
48993;SDS011;34804;49.214;12.276;2023-02-28T11:01:57;13.60;;;7.07;;
48993;SDS011;34804;49.214;12.276;2023-02-28T11:06:59;14.00;;;7.28;;
48993;SDS011;34804;49.214;12.276;2023-02-28T11:09:32;11.73;;;6.75;;
48993;SDS011;34804;49.214;12.276;2023-02-28T11:12:05;12.98;;;6.75;;
48993;SDS011;34804;49.214;12.276;2023-02-28T11:17:20;13.75;;;7.20;;
48993;SDS011;34804;49.214;12.276;2023-02-28T11:19:50;11.82;;;6.07;;
48993;SDS011;34804;49.214;12.276;2023-02-28T11:22:20;12.40;;;6.75;;
48993;SDS011;34804;49.214;12.276;2023-02-28T11:24:51;10.60;;;6.15;;
48993;SDS011;34804;49.214;12.276;2023-02-28T11:29:58;12.23;;;6.93;;
48993;SDS011;34804;49.214;12.276;2023-02-28T11:32:26;13.77;;;7.20;;
48993;SDS011;34804;49.214;12.276;2023-02-28T11:35:02;14.85;;;6.70;;
48993;SDS011;34804;49.214;12.276;2023-02-28T11:37:35;12.18;;;7.22;;
48993;SDS011;34804;49.214;12.276;2023-02-28T11:40:12;13.63;;;7.82;;
48993;SDS011;34804;49.214;12.276;2023-02-28T11:48:22;13.63;;;7.18;;
48993;SDS011;34804;49.214;12.276;2023-02-28T11:54:28;12.68;;;6.10;;
48993;SDS011;34804;49.214;12.276;2023-02-28T11:57:40;10.68;;;5.88;;
48993;SDS011;34804;49.214;12.276;2023-02-28T12:00:28;11.60;;;6.60;;
48993;SDS011;34804;49.214;12.276;2023-02-28T12:05:54;11.15;;;6.20;;
48993;SDS011;34804;49.214;12.276;2023-02-28T12:08:39;11.32;;;6.25;;
48993;SDS011;34804;49.214;12.276;2023-02-28T12:22:29;12.07;;;5.60;;
48993;SDS011;34804;49.214;12.276;2023-02-28T12:27:13;12.70;;;6.18;;
48993;SDS011;34804;49.214;12.276;2023-02-28T12:29:46;11.57;;;5.82;;
48993;SDS011;34804;49.214;12.276;2023-02-28T12:34:48;11.63;;;6.43;;
48993;SDS011;34804;49.214;12.276;2023-02-28T12:37:29;12.13;;;6.25;;
48993;SDS011;34804;49.214;12.276;2023-02-28T12:40:03;10.65;;;6.22;;
48993;SDS011;34804;49.214;12.276;2023-02-28T12:42:43;10.82;;;5.80;;
48993;SDS011;34804;49.214;12.276;2023-02-28T12:45:17;11.32;;;6.32;;
48993;SDS011;34804;49.214;12.276;2023-02-28T12:47:52;14.10;;;6.65;;
48993;SDS011;34804;49.214;12.276;2023-02-28T12:50:26;11.88;;;5.68;;
48993;SDS011;34804;49.214;12.276;2023-02-28T12:53:03;10.75;;;6.43;;
48993;SDS011;34804;49.214;12.276;2023-02-28T12:56:19;10.82;;;6.35;;
48993;SDS011;34804;49.214;12.276;2023-02-28T12:58:50;11.32;;;6.13;;
48993;SDS011;34804;49.214;12.276;2023-02-28T13:09:56;11.30;;;6.10;;
48993;SDS011;34804;49.214;12.276;2023-02-28T13:12:24;12.18;;;5.88;;
48993;SDS011;34804;49.214;12.276;2023-02-28T13:17:46;12.05;;;6.22;;
48993;SDS011;34804;49.214;12.276;2023-02-28T13:20:20;12.20;;;6.10;;
48993;SDS011;34804;49.214;12.276;2023-02-28T13:22:50;10.32;;;6.32;;
48993;SDS011;34804;49.214;12.276;2023-02-28T13:27:49;12.25;;;6.60;;
48993;SDS011;34804;49.214;12.276;2023-02-28T13:36:09;10.43;;;5.75;;
48993;SDS011;34804;49.214;12.276;2023-02-28T13:38:44;9.85;;;5.93;;
48993;SDS011;34804;49.214;12.276;2023-02-28T14:00:39;10.35;;;6.22;;
48993;SDS011;34804;49.214;12.276;2023-02-28T14:05:41;10.75;;;6.30;;
48993;SDS011;34804;49.214;12.276;2023-02-28T14:08:13;9.20;;;5.35;;
48993;SDS011;34804;49.214;12.276;2023-02-28T14:10:45;9.55;;;5.97;;
48993;SDS011;34804;49.214;12.276;2023-02-28T14:16:14;10.38;;;6.63;;
48993;SDS011;34804;49.214;12.276;2023-02-28T14:37:48;10.55;;;5.90;;
48993;SDS011;34804;49.214;12.276;2023-02-28T14:40:17;9.23;;;6.43;;
48993;SDS011;34804;49.214;12.276;2023-02-28T14:42:59;9.25;;;5.90;;
48993;SDS011;34804;49.214;12.276;2023-02-28T14:45:29;10.50;;;6.38;;
48993;SDS011;34804;49.214;12.276;2023-02-28T14:47:58;12.32;;;7.72;;
48993;SDS011;34804;49.214;12.276;2023-02-28T14:50:28;12.77;;;6.75;;
48993;SDS011;34804;49.214;12.276;2023-02-28T14:52:57;11.05;;;6.45;;
48993;SDS011;34804;49.214;12.276;2023-02-28T14:55:29;10.95;;;6.57;;
48993;SDS011;34804;49.214;12.276;2023-02-28T14:57:58;12.25;;;7.15;;
48993;SDS011;34804;49.214;12.276;2023-02-28T15:00:31;10.88;;;6.25;;
48993;SDS011;34804;49.214;12.276;2023-02-28T15:06:00;11.43;;;7.18;;
48993;SDS011;34804;49.214;12.276;2023-02-28T15:08:29;16.65;;;7.07;;
48993;SDS011;34804;49.214;12.276;2023-02-28T15:11:13;10.98;;;6.82;;
48993;SDS011;34804;49.214;12.276;2023-02-28T15:13:46;11.95;;;6.88;;
48993;SDS011;34804;49.214;12.276;2023-02-28T15:16:31;12.57;;;7.60;;
48993;SDS011;34804;49.214;12.276;2023-02-28T15:19:02;11.25;;;7.00;;
48993;SDS011;34804;49.214;12.276;2023-02-28T15:21:36;15.02;;;7.13;;
48993;SDS011;34804;49.214;12.276;2023-02-28T15:24:10;11.93;;;8.15;;
48993;SDS011;34804;49.214;12.276;2023-02-28T15:26:52;14.18;;;8.52;;
48993;SDS011;34804;49.214;12.276;2023-02-28T15:29:23;13.77;;;7.93;;
48993;SDS011;34804;49.214;12.276;2023-02-28T15:31:55;11.50;;;7.90;;
48993;SDS011;34804;49.214;12.276;2023-02-28T15:34:34;13.35;;;7.15;;
48993;SDS011;34804;49.214;12.276;2023-02-28T15:40:11;12.73;;;7.40;;
48993;SDS011;34804;49.214;12.276;2023-02-28T15:42:39;14.00;;;7.90;;
48993;SDS011;34804;49.214;12.276;2023-02-28T15:45:25;14.48;;;8.40;;
48993;SDS011;34804;49.214;12.276;2023-02-28T15:48:17;13.55;;;8.07;;
48993;SDS011;34804;49.214;12.276;2023-02-28T15:51:07;13.98;;;7.80;;
48993;SDS011;34804;49.214;12.276;2023-02-28T15:53:47;11.27;;;8.07;;
48993;SDS011;34804;49.214;12.276;2023-02-28T15:56:23;13.68;;;8.60;;
48993;SDS011;34804;49.214;12.276;2023-02-28T15:58:55;14.02;;;8.35;;
48993;SDS011;34804;49.214;12.276;2023-02-28T16:01:24;15.27;;;8.63;;
48993;SDS011;34804;49.214;12.276;2023-02-28T16:04:03;12.80;;;8.65;;
48993;SDS011;34804;49.214;12.276;2023-02-28T16:06:33;14.23;;;8.75;;
48993;SDS011;34804;49.214;12.276;2023-02-28T16:09:00;14.45;;;8.85;;
48993;SDS011;34804;49.214;12.276;2023-02-28T16:11:28;15.15;;;9.10;;
48993;SDS011;34804;49.214;12.276;2023-02-28T16:13:56;13.48;;;7.80;;
48993;SDS011;34804;49.214;12.276;2023-02-28T16:16:24;15.93;;;7.90;;
48993;SDS011;34804;49.214;12.276;2023-02-28T16:18:52;14.93;;;8.07;;
48993;SDS011;34804;49.214;12.276;2023-02-28T16:21:20;12.60;;;8.43;;
48993;SDS011;34804;49.214;12.276;2023-02-28T16:23:47;13.80;;;8.50;;
48993;SDS011;34804;49.214;12.276;2023-02-28T16:26:19;17.85;;;8.75;;
48993;SDS011;34804;49.214;12.276;2023-02-28T16:28:49;14.07;;;8.40;;
48993;SDS011;34804;49.214;12.276;2023-02-28T16:31:17;15.38;;;8.98;;
48993;SDS011;34804;49.214;12.276;2023-02-28T16:33:44;14.70;;;8.32;;
48993;SDS011;34804;49.214;12.276;2023-02-28T16:36:15;15.27;;;9.23;;
48993;SDS011;34804;49.214;12.276;2023-02-28T16:38:44;13.43;;;8.40;;
48993;SDS011;34804;49.214;12.276;2023-02-28T16:41:18;16.98;;;9.15;;
48993;SDS011;34804;49.214;12.276;2023-02-28T16:43:47;17.58;;;9.45;;
48993;SDS011;34804;49.214;12.276;2023-02-28T16:46:16;19.25;;;10.40;;
48993;SDS011;34804;49.214;12.276;2023-02-28T16:48:44;15.50;;;9.00;;
48993;SDS011;34804;49.214;12.276;2023-02-28T16:51:12;16.92;;;8.82;;
48993;SDS011;34804;49.214;12.276;2023-02-28T16:53:42;18.35;;;9.63;;
48993;SDS011;34804;49.214;12.276;2023-02-28T16:56:13;14.93;;;8.90;;
48993;SDS011;34804;49.214;12.276;2023-02-28T16:58:45;16.73;;;8.90;;
48993;SDS011;34804;49.214;12.276;2023-02-28T17:01:12;16.45;;;9.40;;
48993;SDS011;34804;49.214;12.276;2023-02-28T17:03:40;16.40;;;8.85;;
48993;SDS011;34804;49.214;12.276;2023-02-28T17:06:16;19.20;;;9.60;;
48993;SDS011;34804;49.214;12.276;2023-02-28T17:08:49;18.15;;;10.20;;
48993;SDS011;34804;49.214;12.276;2023-02-28T17:11:17;16.67;;;9.50;;
48993;SDS011;34804;49.214;12.276;2023-02-28T17:13:44;16.50;;;9.55;;
48993;SDS011;34804;49.214;12.276;2023-02-28T17:16:31;18.88;;;10.18;;
48993;SDS011;34804;49.214;12.276;2023-02-28T17:19:04;17.90;;;9.30;;
48993;SDS011;34804;49.214;12.276;2023-02-28T17:21:32;20.60;;;10.00;;